Baykal — UCWU — position and weather

sailwx.info

Track history (hours):
 
Tides and Currents Weather Stations Pressure Air Temp Water Temp Dewpoint Dewpoint Depression Visibility Wind Speed Wind Dir Waves Ship Positions

Baykal

Last reported at 2017-Oct-17 16:26 UTC. Time now 2017-Oct-17 16:56 UTC.
Position N 45°06' E 036°33'.

Length 37 m; draft 1.7 m.

Type: Neutral ship in war zone. MMSI: 273358280.

Date/timePositionNaut miles runAvg speedWind from/ knotsBaromVisibWave heightAir tempDewpointWater temp
2017-Oct-17 16:26N 45°06' E 036°33'0 0.0
2017-Oct-17 13:47N 45°06' E 036°33'2 0.3
2017-Oct-17 07:31N 45°07' E 036°35'0 2.4
2017-Oct-17 07:21N 45°07' E 036°35'1 3.2
2017-Oct-17 07:01N 45°08' E 036°35'0 0.1
2017-Oct-17 06:30N 45°08' E 036°35'0 0.0
2017-Oct-17 05:57N 45°08' E 036°35'0 0.0
2017-Oct-17 05:30N 45°08' E 036°35'0 0.0
2017-Oct-17 05:00N 45°08' E 036°35'0 0.0
2017-Oct-17 03:06N 45°08' E 036°35'0 0.0
2017-Oct-17 00:15N 45°08' E 036°35'0 0.0
2017-Oct-17 00:00N 45°08' E 036°35'0 0.0
2017-Oct-16 23:28N 45°08' E 036°35'0 0.0
2017-Oct-16 20:17N 45°08' E 036°35'0 0.0
2017-Oct-16 19:16N 45°08' E 036°35'1 0.6
2017-Oct-16 18:22N 45°09' E 036°35'1 3.7
2017-Oct-16 18:00N 45°09' E 036°33'4 3.7
2017-Oct-16 16:59N 45°12' E 036°29'2 0.4
2017-Oct-16 11:31N 45°13' E 036°26'0 0.0
2017-Oct-16 09:10N 45°13' E 036°27'0 0.0
2017-Oct-16 06:48N 45°13' E 036°27'0 0.0
2017-Oct-16 06:27N 45°13' E 036°27'0 0.0
2017-Oct-16 04:39N 45°13' E 036°27'0 0.0
2017-Oct-16 04:28N 45°13' E 036°27'0 0.0
2017-Oct-15 10:41N 45°13' E 036°27'1 1.7
2017-Oct-15 10:16N 45°13' E 036°27'1 2.8
2017-Oct-15 09:57N 45°13' E 036°29'2 3.0
2017-Oct-15 09:20N 45°12' E 036°31'1 3.0
2017-Oct-15 08:59N 45°11' E 036°32'1 3.0
2017-Oct-15 08:30N 45°10' E 036°33'2 2.9
2017-Oct-15 07:57N 45°09' E 036°35'0 0.5
2017-Oct-15 07:29N 45°09' E 036°35'0 0.0
2017-Oct-15 07:00N 45°09' E 036°35'0 0.0
2017-Oct-15 06:29N 45°09' E 036°35'0 0.0
2017-Oct-15 06:01N 45°09' E 036°35'0 0.0
2017-Oct-15 05:30N 45°09' E 036°35'0 0.0
2017-Oct-15 05:00N 45°09' E 036°35'0 0.0
2017-Oct-15 04:29N 45°09' E 036°35'0 0.0
2017-Oct-15 03:21N 45°09' E 036°35'0 0.0
2017-Oct-15 02:28N 45°09' E 036°35'0 0.0
2017-Oct-15 01:57N 45°09' E 036°35'0 0.0
2017-Oct-15 01:30N 45°09' E 036°35'0 0.0
2017-Oct-15 00:12N 45°09' E 036°35'0 0.0
2017-Oct-15 00:00N 45°09' E 036°35'0 0.0
2017-Oct-14 23:19N 45°09' E 036°35'0 0.0
2017-Oct-14 22:59N 45°09' E 036°35'0 0.0
2017-Oct-14 22:19N 45°09' E 036°35'1 1.6
2017-Oct-14 21:58N 45°08' E 036°35'1 0.6
2017-Oct-14 20:38N 45°07' E 036°35'1 3.2
2017-Oct-14 20:27N 45°08' E 036°35'2 1.9
2017-Oct-14 19:28N 45°10' E 036°35'0 0.0
2017-Oct-14 18:48N 45°10' E 036°35'0 0.0
2017-Oct-14 18:27N 45°10' E 036°35'0 0.0
2017-Oct-14 17:02N 45°10' E 036°35'0 0.1
2017-Oct-14 16:58N 45°10' E 036°35'1 0.6
2017-Oct-14 16:06N 45°10' E 036°34'0 0.0
2017-Oct-14 15:41N 45°10' E 036°34'0 0.0
2017-Oct-14 13:15N 45°10' E 036°34'0 0.0
2017-Oct-14 12:13N 45°10' E 036°34'0 0.0
2017-Oct-14 12:00N 45°10' E 036°34'0 0.0
2017-Oct-14 11:28N 45°10' E 036°34'0 0.0
2017-Oct-14 09:32N 45°10' E 036°34'0 0.0
2017-Oct-14 09:31N 45°10' E 036°34'0 0.0
2017-Oct-14 08:48N 45°10' E 036°34'0 0.0
2017-Oct-14 07:59N 45°10' E 036°34'0 0.7
2017-Oct-14 07:30N 45°10' E 036°34'2 4.1
2017-Oct-14 06:56N 45°11' E 036°31'2 4.0
2017-Oct-14 06:29N 45°12' E 036°29'2 1.6
2017-Oct-14 05:17N 45°14' E 036°27'0 0.0
2017-Oct-14 04:47N 45°14' E 036°27'0 0.0
2017-Oct-14 04:29N 45°14' E 036°27'0 0.0
2017-Oct-13 16:16N 45°13' E 036°27'5 3.0
2017-Oct-13 14:43N 45°11' E 036°32'1 2.5
2017-Oct-13 14:27N 45°10' E 036°33'1 0.5
2017-Oct-13 13:03N 45°10' E 036°34'0 0.0
2017-Oct-13 12:52N 45°10' E 036°34'0 0.0
2017-Oct-13 11:47N 45°10' E 036°34'0 0.0
2017-Oct-13 11:07N 45°10' E 036°34'0 0.0
2017-Oct-13 10:05N 45°10' E 036°34'0 0.0
2017-Oct-13 09:40N 45°10' E 036°34'0 0.0
2017-Oct-13 09:03N 45°10' E 036°34'0 0.0
2017-Oct-13 08:54N 45°10' E 036°34'0 0.0
2017-Oct-13 08:19N 45°10' E 036°34'0 0.0
2017-Oct-13 07:52N 45°10' E 036°34'0 0.0
2017-Oct-13 06:59N 45°10' E 036°34'0 0.0
2017-Oct-13 06:27N 45°10' E 036°34'0 0.0
2017-Oct-13 06:00N 45°10' E 036°34'0 0.0
2017-Oct-13 05:27N 45°10' E 036°34'0 0.0
2017-Oct-13 05:00N 45°10' E 036°34'0 0.0
2017-Oct-13 04:03N 45°10' E 036°34'0 0.0
2017-Oct-13 03:52N 45°10' E 036°34'0 0.0
2017-Oct-13 03:27N 45°10' E 036°34'0 0.0
2017-Oct-13 02:19N 45°10' E 036°34'0 0.0
2017-Oct-13 01:49N 45°10' E 036°34'0 0.0
2017-Oct-13 01:26N 45°10' E 036°34'0 0.0
2017-Oct-13 00:23N 45°10' E 036°34'0 0.0
2017-Oct-13 00:00N 45°10' E 036°34'0 0.0
2017-Oct-12 23:30N 45°10' E 036°34'0 0.0
2017-Oct-12 22:11N 45°10' E 036°34'0 0.0
2017-Oct-12 22:00N 45°10' E 036°34'0 0.1
2017-Oct-12 21:27N 45°10' E 036°34'0 0.0
2017-Oct-12 20:18N 45°10' E 036°34'0 0.0
2017-Oct-12 19:58N 45°10' E 036°34'0 0.1
2017-Oct-12 19:30N 45°10' E 036°34'0 0.0
2017-Oct-12 18:21N 45°10' E 036°34'0 0.0
2017-Oct-12 17:47N 45°10' E 036°34'0 0.0
2017-Oct-12 17:30N 45°10' E 036°34'0 0.0
2017-Oct-12 16:21N 45°10' E 036°34'0 0.0
2017-Oct-12 15:51N 45°10' E 036°34'0 0.0
2017-Oct-12 15:27N 45°10' E 036°34'0 0.0
2017-Oct-12 14:44N 45°10' E 036°34'0 0.0
2017-Oct-12 14:07N 45°10' E 036°34'0 0.0
2017-Oct-12 13:37N 45°10' E 036°34'0 0.0
2017-Oct-12 13:22N 45°10' E 036°34'0 0.0
2017-Oct-12 12:38N 45°10' E 036°34'0 0.0
2017-Oct-12 09:32N 45°10' E 036°34'0 0.1
2017-Oct-12 09:24N 45°10' E 036°34'0 0.0
2017-Oct-12 08:23N 45°10' E 036°34'0 0.0
2017-Oct-12 07:35N 45°10' E 036°34'0 0.0
2017-Oct-12 07:29N 45°10' E 036°34'0 0.0
2017-Oct-12 06:17N 45°10' E 036°34'0 0.1
2017-Oct-12 05:59N 45°10' E 036°34'0 0.0
2017-Oct-12 05:21N 45°10' E 036°34'0 0.0
2017-Oct-12 05:00N 45°10' E 036°34'0 0.0
2017-Oct-12 04:27N 45°10' E 036°34'0 0.1
2017-Oct-12 04:00N 45°10' E 036°34'0 0.1
2017-Oct-12 03:30N 45°10' E 036°34'0 0.0
2017-Oct-12 02:24N 45°10' E 036°34'0 0.0
2017-Oct-12 01:58N 45°10' E 036°34'0 0.0
2017-Oct-12 00:24N 45°10' E 036°34'0 0.0
2017-Oct-12 00:00N 45°10' E 036°34'0 0.0
2017-Oct-11 23:19N 45°10' E 036°34'0 0.0
2017-Oct-11 22:21N 45°10' E 036°34'0 0.0
2017-Oct-11 21:59N 45°10' E 036°34'0 0.0
2017-Oct-11 21:29N 45°10' E 036°34'0 0.0
2017-Oct-11 20:42N 45°10' E 036°34'0 0.1
2017-Oct-11 20:30N 45°10' E 036°34'0 0.0
2017-Oct-11 19:49N 45°10' E 036°34'0 0.0
2017-Oct-11 19:30N 45°10' E 036°34'0 0.0
2017-Oct-11 18:51N 45°10' E 036°34'0 0.0
2017-Oct-11 18:25N 45°10' E 036°34'0 0.0
2017-Oct-11 17:59N 45°10' E 036°34'0 0.0
2017-Oct-11 17:25N 45°10' E 036°34'0 0.0
2017-Oct-10 23:57N 45°10' E 036°34'0 0.0
2017-Oct-10 23:07N 45°10' E 036°34'0 0.1
2017-Oct-10 23:00N 45°10' E 036°34'0 0.0
2017-Oct-10 22:17N 45°10' E 036°34'0 0.0
2017-Oct-10 21:43N 45°10' E 036°34'0 0.0
2017-Oct-10 21:03N 45°10' E 036°34'0 0.1
2017-Oct-10 20:57N 45°10' E 036°34'0 0.0
2017-Oct-10 20:30N 45°10' E 036°34'0 0.0
2017-Oct-10 20:00N 45°10' E 036°34'0 0.0
2017-Oct-10 19:30N 45°10' E 036°34'0 0.0
2017-Oct-10 18:58N 45°10' E 036°34'0 0.0
2017-Oct-10 18:05N 45°10' E 036°34'0 0.0
2017-Oct-10 17:36N 45°10' E 036°34'0 0.0
2017-Oct-10 17:28N 45°10' E 036°34'0 0.0
2017-Oct-10 16:27N 45°10' E 036°34'0 0.1
2017-Oct-10 15:55N 45°10' E 036°34'0 0.1
2017-Oct-10 15:31N 45°10' E 036°34'0 0.0
2017-Oct-10 14:56N 45°10' E 036°34'0 0.0
2017-Oct-10 13:58N 45°10' E 036°34'0 0.0
2017-Oct-10 13:30N 45°10' E 036°34'0 0.0
2017-Oct-10 12:58N 45°10' E 036°34'0 0.1
2017-Oct-10 12:30N 45°10' E 036°34'0 0.0
2017-Oct-10 12:00N 45°10' E 036°34'0 0.0
2017-Oct-10 11:29N 45°10' E 036°34'0 0.0
2017-Oct-10 11:00N 45°10' E 036°34'0 0.0
2017-Oct-10 10:27N 45°10' E 036°34'0 0.0
2017-Oct-10 09:57N 45°10' E 036°34'0 0.0
2017-Oct-10 09:28N 45°10' E 036°34'0 0.0
2017-Oct-10 09:00N 45°10' E 036°34'0 0.0
2017-Oct-10 08:30N 45°10' E 036°34'0 0.0
2017-Oct-10 07:11N 45°10' E 036°34'0 0.0
2017-Oct-10 06:50N 45°10' E 036°34'0 0.1
2017-Oct-10 06:18N 45°10' E 036°34'0 0.1
2017-Oct-10 06:00N 45°10' E 036°34'0 0.0
2017-Oct-10 05:26N 45°10' E 036°34'0 0.0
2017-Oct-10 05:00N 45°10' E 036°34'0 0.0
2017-Oct-10 04:30N 45°10' E 036°34'0 0.0
2017-Oct-10 03:59N 45°10' E 036°34'0 0.0
2017-Oct-10 03:24N 45°10' E 036°34'0 0.0
2017-Oct-10 02:59N 45°10' E 036°34'0 0.0
2017-Oct-10 02:30N 45°10' E 036°34'0 0.0
2017-Oct-10 01:20N 45°10' E 036°34'0 0.0
2017-Oct-10 00:58N 45°10' E 036°34'0 0.0
2017-Oct-10 00:24N 45°10' E 036°34'0 0.0
2017-Oct-09 23:19N 45°10' E 036°34'0 0.0
2017-Oct-09 22:56N 45°10' E 036°34'0 0.0
2017-Oct-09 22:30N 45°10' E 036°34'0 0.0
2017-Oct-09 19:24N 45°10' E 036°34'0 0.0
2017-Oct-09 18:55N 45°10' E 036°34'0 0.0
2017-Oct-09 18:12N 45°10' E 036°34'0 0.2
2017-Oct-09 17:12N 45°10' E 036°34'0 0.4
2017-Oct-09 16:56N 45°10' E 036°34'2 3.5
2017-Oct-09 16:30N 45°11' E 036°32'2 3.5
2017-Oct-09 15:48N 45°12' E 036°30'1 3.4
2017-Oct-09 15:29N 45°13' E 036°29'2 3.2
2017-Oct-09 14:57N 45°15' E 036°28'2 0.1
2017-Oct-08 06:36N 45°16' E 036°25'0 2.5
2017-Oct-08 06:30N 45°17' E 036°25'2 3.4
2017-Oct-08 05:59N 45°16' E 036°28'2 3.9
2017-Oct-08 05:30N 45°14' E 036°29'2 3.8
2017-Oct-08 04:58N 45°12' E 036°30'3 4.1
2017-Oct-08 04:21N 45°10' E 036°31'2 4.2
2017-Oct-08 03:57N 45°09' E 036°32'2 4.1
2017-Oct-08 03:29N 45°07' E 036°34'1 0.8
2017-Oct-08 02:32N 45°07' E 036°35'0 0.2
2017-Oct-08 02:30N 45°07' E 036°35'0 0.0
2017-Oct-08 01:59N 45°07' E 036°35'0 0.0
2017-Oct-08 01:30N 45°07' E 036°35'0 0.0
2017-Oct-07 21:35N 45°07' E 036°35'0 0.0
2017-Oct-07 21:27N 45°07' E 036°35'0 0.0
2017-Oct-07 20:24N 45°07' E 036°35'0 0.0
2017-Oct-07 19:20N 45°07' E 036°35'0 0.0
2017-Oct-07 18:26N 45°07' E 036°35'0 0.0
2017-Oct-07 18:00N 45°07' E 036°35'  
Track history (hours):
 
Tides and Currents Weather Stations Pressure Air Temp Water Temp Dewpoint Dewpoint Depression Visibility Wind Speed Wind Dir Waves Ship Positions

Baykal

Last reported at 2017-Oct-17 16:26 UTC. Time now 2017-Oct-17 16:56 UTC.
Position N 45°06' E 036°33'.

Length 37 m; draft 1.7 m.

Type: Neutral ship in war zone. MMSI: 273358280.

Date/timePositionNaut miles runAvg speedWind from/ knotsBaromVisibWave heightAir tempDewpointWater temp
2017-Oct-17 16:26N 45°06' E 036°33'0 0.0
2017-Oct-17 13:47N 45°06' E 036°33'2 0.3
2017-Oct-17 07:31N 45°07' E 036°35'0 2.4
2017-Oct-17 07:21N 45°07' E 036°35'1 3.2
2017-Oct-17 07:01N 45°08' E 036°35'0 0.1
2017-Oct-17 06:30N 45°08' E 036°35'0 0.0
2017-Oct-17 05:57N 45°08' E 036°35'0 0.0
2017-Oct-17 05:30N 45°08' E 036°35'0 0.0
2017-Oct-17 05:00N 45°08' E 036°35'0 0.0
2017-Oct-17 03:06N 45°08' E 036°35'0 0.0
2017-Oct-17 00:15N 45°08' E 036°35'0 0.0
2017-Oct-17 00:00N 45°08' E 036°35'0 0.0
2017-Oct-16 23:28N 45°08' E 036°35'0 0.0
2017-Oct-16 20:17N 45°08' E 036°35'0 0.0
2017-Oct-16 19:16N 45°08' E 036°35'1 0.6
2017-Oct-16 18:22N 45°09' E 036°35'1 3.7
2017-Oct-16 18:00N 45°09' E 036°33'4 3.7
2017-Oct-16 16:59N 45°12' E 036°29'2 0.4
2017-Oct-16 11:31N 45°13' E 036°26'0 0.0
2017-Oct-16 09:10N 45°13' E 036°27'0 0.0
2017-Oct-16 06:48N 45°13' E 036°27'0 0.0
2017-Oct-16 06:27N 45°13' E 036°27'0 0.0
2017-Oct-16 04:39N 45°13' E 036°27'0 0.0
2017-Oct-16 04:28N 45°13' E 036°27'0 0.0
2017-Oct-15 10:41N 45°13' E 036°27'1 1.7
2017-Oct-15 10:16N 45°13' E 036°27'1 2.8
2017-Oct-15 09:57N 45°13' E 036°29'2 3.0
2017-Oct-15 09:20N 45°12' E 036°31'1 3.0
2017-Oct-15 08:59N 45°11' E 036°32'1 3.0
2017-Oct-15 08:30N 45°10' E 036°33'2 2.9
2017-Oct-15 07:57N 45°09' E 036°35'0 0.5
2017-Oct-15 07:29N 45°09' E 036°35'0 0.0
2017-Oct-15 07:00N 45°09' E 036°35'0 0.0
2017-Oct-15 06:29N 45°09' E 036°35'0 0.0
2017-Oct-15 06:01N 45°09' E 036°35'0 0.0
2017-Oct-15 05:30N 45°09' E 036°35'0 0.0
2017-Oct-15 05:00N 45°09' E 036°35'0 0.0
2017-Oct-15 04:29N 45°09' E 036°35'0 0.0
2017-Oct-15 03:21N 45°09' E 036°35'0 0.0
2017-Oct-15 02:28N 45°09' E 036°35'0 0.0
2017-Oct-15 01:57N 45°09' E 036°35'0 0.0
2017-Oct-15 01:30N 45°09' E 036°35'0 0.0
2017-Oct-15 00:12N 45°09' E 036°35'0 0.0
2017-Oct-15 00:00N 45°09' E 036°35'0 0.0
2017-Oct-14 23:19N 45°09' E 036°35'0 0.0
2017-Oct-14 22:59N 45°09' E 036°35'0 0.0
2017-Oct-14 22:19N 45°09' E 036°35'1 1.6
2017-Oct-14 21:58N 45°08' E 036°35'1 0.6
2017-Oct-14 20:38N 45°07' E 036°35'1 3.2
2017-Oct-14 20:27N 45°08' E 036°35'2 1.9
2017-Oct-14 19:28N 45°10' E 036°35'0 0.0
2017-Oct-14 18:48N 45°10' E 036°35'0 0.0
2017-Oct-14 18:27N 45°10' E 036°35'0 0.0
2017-Oct-14 17:02N 45°10' E 036°35'0 0.1
2017-Oct-14 16:58N 45°10' E 036°35'1 0.6
2017-Oct-14 16:06N 45°10' E 036°34'0 0.0
2017-Oct-14 15:41N 45°10' E 036°34'0 0.0
2017-Oct-14 13:15N 45°10' E 036°34'0 0.0
2017-Oct-14 12:13N 45°10' E 036°34'0 0.0
2017-Oct-14 12:00N 45°10' E 036°34'0 0.0
2017-Oct-14 11:28N 45°10' E 036°34'0 0.0
2017-Oct-14 09:32N 45°10' E 036°34'0 0.0
2017-Oct-14 09:31N 45°10' E 036°34'0 0.0
2017-Oct-14 08:48N 45°10' E 036°34'0 0.0
2017-Oct-14 07:59N 45°10' E 036°34'0 0.7
2017-Oct-14 07:30N 45°10' E 036°34'2 4.1
2017-Oct-14 06:56N 45°11' E 036°31'2 4.0
2017-Oct-14 06:29N 45°12' E 036°29'2 1.6
2017-Oct-14 05:17N 45°14' E 036°27'0 0.0
2017-Oct-14 04:47N 45°14' E 036°27'0 0.0
2017-Oct-14 04:29N 45°14' E 036°27'0 0.0
2017-Oct-13 16:16N 45°13' E 036°27'5 3.0
2017-Oct-13 14:43N 45°11' E 036°32'1 2.5
2017-Oct-13 14:27N 45°10' E 036°33'1 0.5
2017-Oct-13 13:03N 45°10' E 036°34'0 0.0
2017-Oct-13 12:52N 45°10' E 036°34'0 0.0
2017-Oct-13 11:47N 45°10' E 036°34'0 0.0
2017-Oct-13 11:07N 45°10' E 036°34'0 0.0
2017-Oct-13 10:05N 45°10' E 036°34'0 0.0
2017-Oct-13 09:40N 45°10' E 036°34'0 0.0
2017-Oct-13 09:03N 45°10' E 036°34'0 0.0
2017-Oct-13 08:54N 45°10' E 036°34'0 0.0
2017-Oct-13 08:19N 45°10' E 036°34'0 0.0
2017-Oct-13 07:52N 45°10' E 036°34'0 0.0
2017-Oct-13 06:59N 45°10' E 036°34'0 0.0
2017-Oct-13 06:27N 45°10' E 036°34'0 0.0
2017-Oct-13 06:00N 45°10' E 036°34'0 0.0
2017-Oct-13 05:27N 45°10' E 036°34'0 0.0
2017-Oct-13 05:00N 45°10' E 036°34'0 0.0
2017-Oct-13 04:03N 45°10' E 036°34'0 0.0
2017-Oct-13 03:52N 45°10' E 036°34'0 0.0
2017-Oct-13 03:27N 45°10' E 036°34'0 0.0
2017-Oct-13 02:19N 45°10' E 036°34'0 0.0
2017-Oct-13 01:49N 45°10' E 036°34'0 0.0
2017-Oct-13 01:26N 45°10' E 036°34'0 0.0
2017-Oct-13 00:23N 45°10' E 036°34'0 0.0
2017-Oct-13 00:00N 45°10' E 036°34'0 0.0
2017-Oct-12 23:30N 45°10' E 036°34'0 0.0
2017-Oct-12 22:11N 45°10' E 036°34'0 0.0
2017-Oct-12 22:00N 45°10' E 036°34'0 0.1
2017-Oct-12 21:27N 45°10' E 036°34'0 0.0
2017-Oct-12 20:18N 45°10' E 036°34'0 0.0
2017-Oct-12 19:58N 45°10' E 036°34'0 0.1
2017-Oct-12 19:30N 45°10' E 036°34'0 0.0
2017-Oct-12 18:21N 45°10' E 036°34'0 0.0
2017-Oct-12 17:47N 45°10' E 036°34'0 0.0
2017-Oct-12 17:30N 45°10' E 036°34'0 0.0
2017-Oct-12 16:21N 45°10' E 036°34'0 0.0
2017-Oct-12 15:51N 45°10' E 036°34'0 0.0
2017-Oct-12 15:27N 45°10' E 036°34'0 0.0
2017-Oct-12 14:44N 45°10' E 036°34'0 0.0
2017-Oct-12 14:07N 45°10' E 036°34'0 0.0
2017-Oct-12 13:37N 45°10' E 036°34'0 0.0
2017-Oct-12 13:22N 45°10' E 036°34'0 0.0
2017-Oct-12 12:38N 45°10' E 036°34'0 0.0
2017-Oct-12 09:32N 45°10' E 036°34'0 0.1
2017-Oct-12 09:24N 45°10' E 036°34'0 0.0
2017-Oct-12 08:23N 45°10' E 036°34'0 0.0
2017-Oct-12 07:35N 45°10' E 036°34'0 0.0
2017-Oct-12 07:29N 45°10' E 036°34'0 0.0
2017-Oct-12 06:17N 45°10' E 036°34'0 0.1
2017-Oct-12 05:59N 45°10' E 036°34'0 0.0
2017-Oct-12 05:21N 45°10' E 036°34'0 0.0
2017-Oct-12 05:00N 45°10' E 036°34'0 0.0
2017-Oct-12 04:27N 45°10' E 036°34'0 0.1
2017-Oct-12 04:00N 45°10' E 036°34'0 0.1
2017-Oct-12 03:30N 45°10' E 036°34'0 0.0
2017-Oct-12 02:24N 45°10' E 036°34'0 0.0
2017-Oct-12 01:58N 45°10' E 036°34'0 0.0
2017-Oct-12 00:24N 45°10' E 036°34'0 0.0
2017-Oct-12 00:00N 45°10' E 036°34'0 0.0
2017-Oct-11 23:19N 45°10' E 036°34'0 0.0
2017-Oct-11 22:21N 45°10' E 036°34'0 0.0
2017-Oct-11 21:59N 45°10' E 036°34'0 0.0
2017-Oct-11 21:29N 45°10' E 036°34'0 0.0
2017-Oct-11 20:42N 45°10' E 036°34'0 0.1
2017-Oct-11 20:30N 45°10' E 036°34'0 0.0
2017-Oct-11 19:49N 45°10' E 036°34'0 0.0
2017-Oct-11 19:30N 45°10' E 036°34'0 0.0
2017-Oct-11 18:51N 45°10' E 036°34'0 0.0
2017-Oct-11 18:25N 45°10' E 036°34'0 0.0
2017-Oct-11 17:59N 45°10' E 036°34'0 0.0
2017-Oct-11 17:25N 45°10' E 036°34'0 0.0
2017-Oct-10 23:57N 45°10' E 036°34'0 0.0
2017-Oct-10 23:07N 45°10' E 036°34'0 0.1
2017-Oct-10 23:00N 45°10' E 036°34'0 0.0
2017-Oct-10 22:17N 45°10' E 036°34'0 0.0
2017-Oct-10 21:43N 45°10' E 036°34'0 0.0
2017-Oct-10 21:03N 45°10' E 036°34'0 0.1
2017-Oct-10 20:57N 45°10' E 036°34'0 0.0
2017-Oct-10 20:30N 45°10' E 036°34'0 0.0
2017-Oct-10 20:00N 45°10' E 036°34'0 0.0
2017-Oct-10 19:30N 45°10' E 036°34'0 0.0
2017-Oct-10 18:58N 45°10' E 036°34'0 0.0
2017-Oct-10 18:05N 45°10' E 036°34'0 0.0
2017-Oct-10 17:36N 45°10' E 036°34'0 0.0
2017-Oct-10 17:28N 45°10' E 036°34'0 0.0
2017-Oct-10 16:27N 45°10' E 036°34'0 0.1
2017-Oct-10 15:55N 45°10' E 036°34'0 0.1
2017-Oct-10 15:31N 45°10' E 036°34'0 0.0
2017-Oct-10 14:56N 45°10' E 036°34'0 0.0
2017-Oct-10 13:58N 45°10' E 036°34'0 0.0
2017-Oct-10 13:30N 45°10' E 036°34'0 0.0
2017-Oct-10 12:58N 45°10' E 036°34'0 0.1
2017-Oct-10 12:30N 45°10' E 036°34'0 0.0
2017-Oct-10 12:00N 45°10' E 036°34'0 0.0
2017-Oct-10 11:29N 45°10' E 036°34'0 0.0
2017-Oct-10 11:00N 45°10' E 036°34'0 0.0
2017-Oct-10 10:27N 45°10' E 036°34'0 0.0
2017-Oct-10 09:57N 45°10' E 036°34'0 0.0
2017-Oct-10 09:28N 45°10' E 036°34'0 0.0
2017-Oct-10 09:00N 45°10' E 036°34'0 0.0
2017-Oct-10 08:30N 45°10' E 036°34'0 0.0
2017-Oct-10 07:11N 45°10' E 036°34'0 0.0
2017-Oct-10 06:50N 45°10' E 036°34'0 0.1
2017-Oct-10 06:18N 45°10' E 036°34'0 0.1
2017-Oct-10 06:00N 45°10' E 036°34'0 0.0
2017-Oct-10 05:26N 45°10' E 036°34'0 0.0
2017-Oct-10 05:00N 45°10' E 036°34'0 0.0
2017-Oct-10 04:30N 45°10' E 036°34'0 0.0
2017-Oct-10 03:59N 45°10' E 036°34'0 0.0
2017-Oct-10 03:24N 45°10' E 036°34'0 0.0
2017-Oct-10 02:59N 45°10' E 036°34'0 0.0
2017-Oct-10 02:30N 45°10' E 036°34'0 0.0
2017-Oct-10 01:20N 45°10' E 036°34'0 0.0
2017-Oct-10 00:58N 45°10' E 036°34'0 0.0
2017-Oct-10 00:24N 45°10' E 036°34'0 0.0
2017-Oct-09 23:19N 45°10' E 036°34'0 0.0
2017-Oct-09 22:56N 45°10' E 036°34'0 0.0
2017-Oct-09 22:30N 45°10' E 036°34'0 0.0
2017-Oct-09 19:24N 45°10' E 036°34'0 0.0
2017-Oct-09 18:55N 45°10' E 036°34'0 0.0
2017-Oct-09 18:12N 45°10' E 036°34'0 0.2
2017-Oct-09 17:12N 45°10' E 036°34'0 0.4
2017-Oct-09 16:56N 45°10' E 036°34'2 3.5
2017-Oct-09 16:30N 45°11' E 036°32'2 3.5
2017-Oct-09 15:48N 45°12' E 036°30'1 3.4
2017-Oct-09 15:29N 45°13' E 036°29'2 3.2
2017-Oct-09 14:57N 45°15' E 036°28'2 0.1
2017-Oct-08 06:36N 45°16' E 036°25'0 2.5
2017-Oct-08 06:30N 45°17' E 036°25'2 3.4
2017-Oct-08 05:59N 45°16' E 036°28'2 3.9
2017-Oct-08 05:30N 45°14' E 036°29'2 3.8
2017-Oct-08 04:58N 45°12' E 036°30'3 4.1
2017-Oct-08 04:21N 45°10' E 036°31'2 4.2
2017-Oct-08 03:57N 45°09' E 036°32'2 4.1
2017-Oct-08 03:29N 45°07' E 036°34'1 0.8
2017-Oct-08 02:32N 45°07' E 036°35'0 0.2
2017-Oct-08 02:30N 45°07' E 036°35'0 0.0
2017-Oct-08 01:59N 45°07' E 036°35'0 0.0
2017-Oct-08 01:30N 45°07' E 036°35'0 0.0
2017-Oct-07 21:35N 45°07' E 036°35'0 0.0
2017-Oct-07 21:27N 45°07' E 036°35'0 0.0
2017-Oct-07 20:24N 45°07' E 036°35'0 0.0
2017-Oct-07 19:20N 45°07' E 036°35'0 0.0
2017-Oct-07 18:26N 45°07' E 036°35'0 0.0
2017-Oct-07 18:00N 45°07' E 036°35'  

Dump ship's entire track history